Amherst, Texas
Current Conditions -  °F | °C
As of 4:35 PM on Monday 22 Dec 2014 (Local Time) from KPVW Reporting Station
Overcast Overcast  
Wind Chill: 50°   Ceiling: 7500
Heat Index: 50°   Visibility: 10mi
Dew Point: 29°   Wind: 8mph
Humidity: 45%   Direction: 50°NE
Pressure: 29.68"   Gusts: NA
Location:  34.01°N, 102.42°W
Report Text: KPVW 222235Z AUTO 05007KT 10SM OVC075 10/M02 A2968 RMK AO2 T01001016
Loading
Personal Weather Stations






























Interactive Weather Map New forecast layout! Learn more

10-Day Weather Forecast

Advertisements
Track Severe Weather on mobile